sensor_id;sensor_type;location;lat;lon;timestamp;pressure;altitude;pressure_sealevel;temperature;humidity
78444;BME280;67739;52.986;8.894;2023-05-07T00:00:53;102067.31;;;9.51;83.17
78444;BME280;67739;52.986;8.894;2023-05-07T00:03:20;102061.97;;;9.50;83.39
78444;BME280;67739;52.986;8.894;2023-05-07T00:05:49;102070.97;;;9.47;83.78
78444;BME280;67739;52.986;8.894;2023-05-07T00:08:16;102057.56;;;9.47;83.50
78444;BME280;67739;52.986;8.894;2023-05-07T00:10:42;102055.81;;;9.46;83.47
78444;BME280;67739;52.986;8.894;2023-05-07T00:13:07;102058.56;;;9.43;83.03
78444;BME280;67739;52.986;8.894;2023-05-07T00:15:33;102060.34;;;9.43;83.08
78444;BME280;67739;52.986;8.894;2023-05-07T00:17:58;102057.72;;;9.40;83.47
78444;BME280;67739;52.986;8.894;2023-05-07T00:20:24;102062.22;;;9.39;83.41
78444;BME280;67739;52.986;8.894;2023-05-07T00:22:53;102068.38;;;9.43;83.54
78444;BME280;67739;52.986;8.894;2023-05-07T00:25:18;102059.47;;;9.42;83.36
78444;BME280;67739;52.986;8.894;2023-05-07T00:27:45;102057.69;;;9.41;83.70
78444;BME280;67739;52.986;8.894;2023-05-07T00:30:11;102059.47;;;9.42;83.76
78444;BME280;67739;52.986;8.894;2023-05-07T00:32:36;102064.78;;;9.44;83.36
78444;BME280;67739;52.986;8.894;2023-05-07T00:35:06;102055.88;;;9.43;83.78
78444;BME280;67739;52.986;8.894;2023-05-07T00:37:33;102052.41;;;9.38;83.80
78444;BME280;67739;52.986;8.894;2023-05-07T00:39:59;102049.78;;;9.37;84.01
78444;BME280;67739;52.986;8.894;2023-05-07T00:42:25;102066.75;;;9.37;84.44
78444;BME280;67739;52.986;8.894;2023-05-07T00:44:50;102057.00;;;9.33;84.22
78444;BME280;67739;52.986;8.894;2023-05-07T00:47:16;102049.88;;;9.32;83.69
78444;BME280;67739;52.986;8.894;2023-05-07T00:49:42;102055.28;;;9.31;83.89
78444;BME280;67739;52.986;8.894;2023-05-07T00:52:13;102055.31;;;9.29;83.69
78444;BME280;67739;52.986;8.894;2023-05-07T00:54:40;102057.09;;;9.29;83.49
78444;BME280;67739;52.986;8.894;2023-05-07T00:57:06;102053.56;;;9.27;83.58
78444;BME280;67739;52.986;8.894;2023-05-07T00:59:32;102059.88;;;9.24;83.81
78444;BME280;67739;52.986;8.894;2023-05-07T01:02:00;102061.72;;;9.22;83.86
78444;BME280;67739;52.986;8.894;2023-05-07T01:04:26;102063.53;;;9.21;83.89
78444;BME280;67739;52.986;8.894;2023-05-07T01:06:55;102054.66;;;9.19;84.03
78444;BME280;67739;52.986;8.894;2023-05-07T01:09:29;102057.38;;;9.16;83.80
78444;BME280;67739;52.986;8.894;2023-05-07T01:11:57;102058.25;;;9.17;83.98
78444;BME280;67739;52.986;8.894;2023-05-07T01:14:24;102066.28;;;9.17;84.01
78444;BME280;67739;52.986;8.894;2023-05-07T01:16:50;102065.44;;;9.15;84.11
78444;BME280;67739;52.986;8.894;2023-05-07T01:19:18;102063.66;;;9.15;84.06
78444;BME280;67739;52.986;8.894;2023-05-07T01:21:46;102065.44;;;9.15;84.31
78444;BME280;67739;52.986;8.894;2023-05-07T01:24:13;102056.56;;;9.13;83.99
78444;BME280;67739;52.986;8.894;2023-05-07T01:26:39;102065.50;;;9.12;83.90
78444;BME280;67739;52.986;8.894;2023-05-07T01:29:05;102062.91;;;9.09;84.23
78444;BME280;67739;52.986;8.894;2023-05-07T01:31:35;102073.63;;;9.09;84.18
78444;BME280;67739;52.986;8.894;2023-05-07T01:34:02;102061.19;;;9.06;84.10
78444;BME280;67739;52.986;8.894;2023-05-07T01:36:29;102059.41;;;9.05;84.02
78444;BME280;67739;52.986;8.894;2023-05-07T01:38:55;102059.41;;;9.05;84.22
78444;BME280;67739;52.986;8.894;2023-05-07T01:41:23;102058.56;;;9.03;84.27
78444;BME280;67739;52.986;8.894;2023-05-07T01:43:50;102055.00;;;9.03;84.51
78444;BME280;67739;52.986;8.894;2023-05-07T01:46:17;102058.63;;;9.00;84.69
78444;BME280;67739;52.986;8.894;2023-05-07T01:48:43;102057.72;;;9.01;84.42
78444;BME280;67739;52.986;8.894;2023-05-07T01:51:12;102058.59;;;9.02;84.82
78444;BME280;67739;52.986;8.894;2023-05-07T01:53:39;102060.38;;;9.03;84.53
78444;BME280;67739;52.986;8.894;2023-05-07T01:56:06;102063.09;;;9.00;84.83
78444;BME280;67739;52.986;8.894;2023-05-07T01:58:31;102064.03;;;8.97;84.65
78444;BME280;67739;52.986;8.894;2023-05-07T02:00:57;102060.56;;;8.94;85.21
78444;BME280;67739;52.986;8.894;2023-05-07T02:03:22;102064.16;;;8.93;85.10
78444;BME280;67739;52.986;8.894;2023-05-07T02:05:47;102059.72;;;8.92;84.88
78444;BME280;67739;52.986;8.894;2023-05-07T02:08:13;102066.00;;;8.89;85.00
78444;BME280;67739;52.986;8.894;2023-05-07T02:10:39;102062.44;;;8.89;85.05
78444;BME280;67739;52.986;8.894;2023-05-07T02:13:04;102065.13;;;8.89;84.74
78444;BME280;67739;52.986;8.894;2023-05-07T02:15:32;102067.88;;;8.84;84.59
78444;BME280;67739;52.986;8.894;2023-05-07T02:18:06;102069.75;;;8.80;84.61
78444;BME280;67739;52.986;8.894;2023-05-07T02:20:32;102063.63;;;8.75;84.93
78444;BME280;67739;52.986;8.894;2023-05-07T02:22:58;102070.75;;;8.75;84.45
78444;BME280;67739;52.986;8.894;2023-05-07T02:25:26;102065.44;;;8.73;84.94
78444;BME280;67739;52.986;8.894;2023-05-07T02:27:51;102073.47;;;8.73;84.66
78444;BME280;67739;52.986;8.894;2023-05-07T02:30:17;102070.75;;;8.75;84.71
78444;BME280;67739;52.986;8.894;2023-05-07T02:32:42;102066.41;;;8.69;84.81
78444;BME280;67739;52.986;8.894;2023-05-07T02:35:09;102061.06;;;8.69;85.07
78444;BME280;67739;52.986;8.894;2023-05-07T02:37:35;102069.09;;;8.69;85.23
78444;BME280;67739;52.986;8.894;2023-05-07T02:40:00;102070.00;;;8.68;85.02
78444;BME280;67739;52.986;8.894;2023-05-07T02:42:26;102075.31;;;8.70;85.34
78444;BME280;67739;52.986;8.894;2023-05-07T02:44:51;102071.69;;;8.72;85.09
78444;BME280;67739;52.986;8.894;2023-05-07T02:47:17;102077.00;;;8.75;84.76
78444;BME280;67739;52.986;8.894;2023-05-07T02:49:42;102077.91;;;8.74;85.12
78444;BME280;67739;52.986;8.894;2023-05-07T02:52:08;102084.13;;;8.76;84.67
78444;BME280;67739;52.986;8.894;2023-05-07T02:54:33;102087.66;;;8.77;84.98
78444;BME280;67739;52.986;8.894;2023-05-07T02:56:58;102078.78;;;8.75;84.79
78444;BME280;67739;52.986;8.894;2023-05-07T02:59:25;102069.09;;;8.69;84.90
78444;BME280;67739;52.986;8.894;2023-05-07T03:01:51;102074.44;;;8.69;85.01
78444;BME280;67739;52.986;8.894;2023-05-07T03:04:19;102079.81;;;8.68;84.98
78444;BME280;67739;52.986;8.894;2023-05-07T03:06:45;102086.97;;;8.66;85.17
78444;BME280;67739;52.986;8.894;2023-05-07T03:09:10;102079.00;;;8.64;85.27
78444;BME280;67739;52.986;8.894;2023-05-07T03:11:39;102080.84;;;8.62;85.29
78444;BME280;67739;52.986;8.894;2023-05-07T03:14:04;102081.72;;;8.63;85.20
78444;BME280;67739;52.986;8.894;2023-05-07T03:16:29;102087.91;;;8.65;85.08
78444;BME280;67739;52.986;8.894;2023-05-07T03:18:55;102085.25;;;8.65;85.36
78444;BME280;67739;52.986;8.894;2023-05-07T03:21:20;102079.00;;;8.64;85.35
78444;BME280;67739;52.986;8.894;2023-05-07T03:23:46;102080.78;;;8.65;85.24
78444;BME280;67739;52.986;8.894;2023-05-07T03:26:14;102083.47;;;8.65;85.32
78444;BME280;67739;52.986;8.894;2023-05-07T03:28:43;102070.94;;;8.66;85.29
78444;BME280;67739;52.986;8.894;2023-05-07T03:31:10;102079.84;;;8.66;84.89
78444;BME280;67739;52.986;8.894;2023-05-07T03:33:50;102078.94;;;8.66;85.33
78444;BME280;67739;52.986;8.894;2023-05-07T03:36:17;102071.91;;;8.63;84.81
78444;BME280;67739;52.986;8.894;2023-05-07T03:38:43;102067.44;;;8.64;84.90
78444;BME280;67739;52.986;8.894;2023-05-07T03:41:08;102075.47;;;8.62;84.76
78444;BME280;67739;52.986;8.894;2023-05-07T03:43:33;102073.66;;;8.64;85.13
78444;BME280;67739;52.986;8.894;2023-05-07T03:45:59;102074.59;;;8.62;85.13
78444;BME280;67739;52.986;8.894;2023-05-07T03:48:24;102067.47;;;8.62;85.12
78444;BME280;67739;52.986;8.894;2023-05-07T03:50:50;102066.53;;;8.63;85.00
78444;BME280;67739;52.986;8.894;2023-05-07T03:53:15;102071.00;;;8.63;84.89
78444;BME280;67739;52.986;8.894;2023-05-07T03:55:41;102067.47;;;8.62;84.66
78444;BME280;67739;52.986;8.894;2023-05-07T03:58:06;102070.13;;;8.62;85.18
78444;BME280;67739;52.986;8.894;2023-05-07T04:00:31;102072.81;;;8.62;85.34
78444;BME280;67739;52.986;8.894;2023-05-07T04:03:04;102075.47;;;8.64;85.19
78444;BME280;67739;52.986;8.894;2023-05-07T04:05:30;102083.50;;;8.62;85.67
78444;BME280;67739;52.986;8.894;2023-05-07T04:07:57;102078.16;;;8.62;85.69
78444;BME280;67739;52.986;8.894;2023-05-07T04:10:23;102076.34;;;8.64;85.52
78444;BME280;67739;52.986;8.894;2023-05-07T04:12:48;102079.91;;;8.65;85.61
78444;BME280;67739;52.986;8.894;2023-05-07T04:15:17;102088.72;;;8.68;85.65
78444;BME280;67739;52.986;8.894;2023-05-07T04:17:42;102093.16;;;8.69;85.23
78444;BME280;67739;52.986;8.894;2023-05-07T04:20:15;102089.63;;;8.67;85.17
78444;BME280;67739;52.986;8.894;2023-05-07T04:22:41;102093.16;;;8.69;85.39
78444;BME280;67739;52.986;8.894;2023-05-07T04:25:07;102102.06;;;8.70;85.44
78444;BME280;67739;52.986;8.894;2023-05-07T04:27:34;102094.03;;;8.70;85.44
78444;BME280;67739;52.986;8.894;2023-05-07T04:30:03;102103.78;;;8.74;85.71
78444;BME280;67739;52.986;8.894;2023-05-07T04:32:29;102099.28;;;8.76;85.17
78444;BME280;67739;52.986;8.894;2023-05-07T04:34:55;102101.06;;;8.77;85.53
78444;BME280;67739;52.986;8.894;2023-05-07T04:37:21;102090.34;;;8.77;85.63
78444;BME280;67739;52.986;8.894;2023-05-07T04:39:47;102083.22;;;8.76;85.73
78444;BME280;67739;52.986;8.894;2023-05-07T04:42:16;102082.34;;;8.75;85.24
78444;BME280;67739;52.986;8.894;2023-05-07T04:44:42;102085.91;;;8.76;85.21
78444;BME280;67739;52.986;8.894;2023-05-07T04:47:08;102086.81;;;8.75;85.30
78444;BME280;67739;52.986;8.894;2023-05-07T04:49:33;102092.16;;;8.75;85.35
78444;BME280;67739;52.986;8.894;2023-05-07T04:51:58;102093.91;;;8.77;85.41
78444;BME280;67739;52.986;8.894;2023-05-07T04:54:24;102094.69;;;8.82;85.48
78444;BME280;67739;52.986;8.894;2023-05-07T04:56:55;102096.41;;;8.85;85.62
78444;BME280;67739;52.986;8.894;2023-05-07T04:59:20;102099.97;;;8.85;85.45
78444;BME280;67739;52.986;8.894;2023-05-07T05:01:46;102099.97;;;8.85;85.23
78444;BME280;67739;52.986;8.894;2023-05-07T05:04:11;102108.84;;;8.88;85.21
78444;BME280;67739;52.986;8.894;2023-05-07T05:06:38;102107.97;;;8.87;85.57
78444;BME280;67739;52.986;8.894;2023-05-07T05:09:03;102105.28;;;8.89;85.28
78444;BME280;67739;52.986;8.894;2023-05-07T05:11:30;102110.63;;;8.89;85.28
78444;BME280;67739;52.986;8.894;2023-05-07T05:13:56;102109.72;;;8.90;85.35
78444;BME280;67739;52.986;8.894;2023-05-07T05:16:21;102109.69;;;8.91;84.91
78444;BME280;67739;52.986;8.894;2023-05-07T05:18:47;102108.78;;;8.92;85.16
78444;BME280;67739;52.986;8.894;2023-05-07T05:21:12;102115.03;;;8.91;84.65
78444;BME280;67739;52.986;8.894;2023-05-07T05:23:38;102108.81;;;8.91;85.15
78444;BME280;67739;52.986;8.894;2023-05-07T05:26:04;102122.16;;;8.92;84.60
78444;BME280;67739;52.986;8.894;2023-05-07T05:28:29;102114.09;;;8.94;84.50
78444;BME280;67739;52.986;8.894;2023-05-07T05:30:55;102117.59;;;8.96;84.38
78444;BME280;67739;52.986;8.894;2023-05-07T05:33:20;102119.38;;;8.97;83.89
78444;BME280;67739;52.986;8.894;2023-05-07T05:35:46;102114.91;;;8.96;84.18
78444;BME280;67739;52.986;8.894;2023-05-07T05:38:11;102126.47;;;8.98;84.26
78444;BME280;67739;52.986;8.894;2023-05-07T05:40:40;102116.72;;;8.95;83.85
78444;BME280;67739;52.986;8.894;2023-05-07T05:43:05;102127.47;;;8.94;83.71
78444;BME280;67739;52.986;8.894;2023-05-07T05:45:31;102135.53;;;8.92;84.12
78444;BME280;67739;52.986;8.894;2023-05-07T05:47:56;102137.31;;;8.92;84.19
78444;BME280;67739;52.986;8.894;2023-05-07T05:50:22;102138.28;;;8.89;84.43
78444;BME280;67739;52.986;8.894;2023-05-07T05:52:48;102130.22;;;8.91;84.01
78444;BME280;67739;52.986;8.894;2023-05-07T05:55:14;102134.72;;;8.89;83.86
78444;BME280;67739;52.986;8.894;2023-05-07T05:57:39;102147.16;;;8.91;83.71
78444;BME280;67739;52.986;8.894;2023-05-07T06:00:06;102137.31;;;8.92;83.66
78444;BME280;67739;52.986;8.894;2023-05-07T06:02:32;102144.44;;;8.93;83.73
78444;BME280;67739;52.986;8.894;2023-05-07T06:04:57;102147.03;;;8.96;84.05
78444;BME280;67739;52.986;8.894;2023-05-07T06:07:22;102150.50;;;9.01;83.92
78444;BME280;67739;52.986;8.894;2023-05-07T06:09:48;102150.47;;;9.04;83.82
78444;BME280;67739;52.986;8.894;2023-05-07T06:12:13;102151.19;;;9.10;83.32
78444;BME280;67739;52.986;8.894;2023-05-07T06:14:42;102148.50;;;9.12;83.04
78444;BME280;67739;52.986;8.894;2023-05-07T06:17:08;102152.06;;;9.12;83.05
78444;BME280;67739;52.986;8.894;2023-05-07T06:19:36;102152.94;;;9.13;82.90
78444;BME280;67739;52.986;8.894;2023-05-07T06:22:01;102144.91;;;9.13;82.72
78444;BME280;67739;52.986;8.894;2023-05-07T06:24:27;102155.56;;;9.16;82.09
78444;BME280;67739;52.986;8.894;2023-05-07T06:26:53;102158.25;;;9.14;82.42
78444;BME280;67739;52.986;8.894;2023-05-07T06:29:19;102158.22;;;9.17;82.54
78444;BME280;67739;52.986;8.894;2023-05-07T06:31:44;102155.47;;;9.20;82.49
78444;BME280;67739;52.986;8.894;2023-05-07T06:34:10;102152.78;;;9.22;82.55
78444;BME280;67739;52.986;8.894;2023-05-07T06:36:39;102148.31;;;9.23;82.51
78444;BME280;67739;52.986;8.894;2023-05-07T06:39:05;102145.53;;;9.26;82.11
78444;BME280;67739;52.986;8.894;2023-05-07T06:41:31;102143.72;;;9.26;81.68
78444;BME280;67739;52.986;8.894;2023-05-07T06:43:56;102146.34;;;9.29;81.64
78444;BME280;67739;52.986;8.894;2023-05-07T06:46:22;102147.25;;;9.28;81.78
78444;BME280;67739;52.986;8.894;2023-05-07T06:48:47;102139.16;;;9.33;82.01
78444;BME280;67739;52.986;8.894;2023-05-07T06:51:13;102139.13;;;9.34;81.60
78444;BME280;67739;52.986;8.894;2023-05-07T06:53:41;102134.63;;;9.36;81.00
78444;BME280;67739;52.986;8.894;2023-05-07T06:56:06;102131.81;;;9.41;80.99
78444;BME280;67739;52.986;8.894;2023-05-07T06:58:32;102138.88;;;9.45;81.47
78444;BME280;67739;52.986;8.894;2023-05-07T07:01:03;102142.34;;;9.50;80.97
78444;BME280;67739;52.986;8.894;2023-05-07T07:03:29;102145.78;;;9.55;80.92
78444;BME280;67739;52.986;8.894;2023-05-07T07:05:54;102152.81;;;9.61;80.90
78444;BME280;67739;52.986;8.894;2023-05-07T07:08:26;102142.88;;;9.66;81.29
78444;BME280;67739;52.986;8.894;2023-05-07T07:10:51;102154.31;;;9.72;81.07
78444;BME280;67739;52.986;8.894;2023-05-07T07:13:17;102155.13;;;9.77;80.87
78444;BME280;67739;52.986;8.894;2023-05-07T07:15:51;102163.84;;;9.85;79.86
78444;BME280;67739;52.986;8.894;2023-05-07T07:18:19;102160.31;;;9.83;79.29
78444;BME280;67739;52.986;8.894;2023-05-07T07:20:45;102163.84;;;9.85;79.21
78444;BME280;67739;52.986;8.894;2023-05-07T07:23:14;102160.22;;;9.88;79.71
78444;BME280;67739;52.986;8.894;2023-05-07T07:25:41;102168.19;;;9.91;79.53
78444;BME280;67739;52.986;8.894;2023-05-07T07:28:06;102168.88;;;9.99;80.17
78444;BME280;67739;52.986;8.894;2023-05-07T07:30:32;102168.69;;;10.08;79.73
78444;BME280;67739;52.986;8.894;2023-05-07T07:32:57;102172.09;;;10.13;79.78
78444;BME280;67739;52.986;8.894;2023-05-07T07:35:30;102176.47;;;10.17;79.68
78444;BME280;67739;52.986;8.894;2023-05-07T07:37:55;102173.78;;;10.20;78.58
78444;BME280;67739;52.986;8.894;2023-05-07T07:40:21;102177.19;;;10.25;78.86
78444;BME280;67739;52.986;8.894;2023-05-07T07:42:47;102185.09;;;10.32;77.98
78444;BME280;67739;52.986;8.894;2023-05-07T07:45:12;102173.38;;;10.36;78.17
78444;BME280;67739;52.986;8.894;2023-05-07T07:47:39;102169.81;;;10.35;77.38
78444;BME280;67739;52.986;8.894;2023-05-07T07:50:05;102168.94;;;10.35;77.76
78444;BME280;67739;52.986;8.894;2023-05-07T07:52:31;102167.84;;;10.42;77.80
78444;BME280;67739;52.986;8.894;2023-05-07T07:54:56;102164.97;;;10.49;77.35
78444;BME280;67739;52.986;8.894;2023-05-07T07:57:25;102168.38;;;10.56;76.57
78444;BME280;67739;52.986;8.894;2023-05-07T07:59:50;102174.50;;;10.61;77.40
78444;BME280;67739;52.986;8.894;2023-05-07T08:02:17;102164.44;;;10.69;76.70
78444;BME280;67739;52.986;8.894;2023-05-07T08:04:42;102176.72;;;10.79;77.71
78444;BME280;67739;52.986;8.894;2023-05-07T08:07:13;102171.09;;;10.88;76.65
78444;BME280;67739;52.986;8.894;2023-05-07T08:09:39;102175.38;;;10.95;76.37
78444;BME280;67739;52.986;8.894;2023-05-07T08:12:07;102174.25;;;11.03;76.65
78444;BME280;67739;52.986;8.894;2023-05-07T08:14:34;102183.00;;;11.11;76.70
78444;BME280;67739;52.986;8.894;2023-05-07T08:16:59;102179.19;;;11.18;76.71
78444;BME280;67739;52.986;8.894;2023-05-07T08:19:25;102188.91;;;11.23;75.64
78444;BME280;67739;52.986;8.894;2023-05-07T08:21:50;102177.13;;;11.27;75.15
78444;BME280;67739;52.986;8.894;2023-05-07T08:24:16;102191.28;;;11.34;74.50
78444;BME280;67739;52.986;8.894;2023-05-07T08:26:45;102184.13;;;11.33;75.30
78444;BME280;67739;52.986;8.894;2023-05-07T08:29:11;102194.75;;;11.38;74.23
78444;BME280;67739;52.986;8.894;2023-05-07T08:31:38;102185.81;;;11.37;74.25
78444;BME280;67739;52.986;8.894;2023-05-07T08:34:07;102197.34;;;11.41;73.67
78444;BME280;67739;52.986;8.894;2023-05-07T08:36:35;102201.00;;;11.38;73.48
78444;BME280;67739;52.986;8.894;2023-05-07T08:39:03;102198.38;;;11.37;73.81
78444;BME280;67739;52.986;8.894;2023-05-07T08:41:29;102191.19;;;11.37;74.47
78444;BME280;67739;52.986;8.894;2023-05-07T08:43:57;102190.16;;;11.41;73.12
78444;BME280;67739;52.986;8.894;2023-05-07T08:46:33;102199.94;;;11.44;73.09
78444;BME280;67739;52.986;8.894;2023-05-07T08:49:09;102197.22;;;11.45;74.15
78444;BME280;67739;52.986;8.894;2023-05-07T08:51:35;102198.88;;;11.49;72.84
78444;BME280;67739;52.986;8.894;2023-05-07T08:54:01;102194.34;;;11.51;73.08
78444;BME280;67739;52.986;8.894;2023-05-07T08:56:30;102202.25;;;11.56;72.19
78444;BME280;67739;52.986;8.894;2023-05-07T08:58:55;102190.53;;;11.58;74.23
78444;BME280;67739;52.986;8.894;2023-05-07T09:01:24;102193.91;;;11.66;72.92
78444;BME280;67739;52.986;8.894;2023-05-07T09:03:50;102205.28;;;11.75;71.63
78444;BME280;67739;52.986;8.894;2023-05-07T09:06:16;102197.06;;;11.81;72.03
78444;BME280;67739;52.986;8.894;2023-05-07T09:08:52;102199.59;;;11.85;72.85
78444;BME280;67739;52.986;8.894;2023-05-07T09:11:23;102194.84;;;11.95;72.48
78444;BME280;67739;52.986;8.894;2023-05-07T09:13:53;102198.06;;;12.06;71.86
78444;BME280;67739;52.986;8.894;2023-05-07T09:16:21;102187.91;;;12.14;71.37
78444;BME280;67739;52.986;8.894;2023-05-07T09:18:53;102202.09;;;12.19;71.14
78444;BME280;67739;52.986;8.894;2023-05-07T09:21:20;102205.53;;;12.24;71.70
78444;BME280;67739;52.986;8.894;2023-05-07T09:23:51;102207.22;;;12.27;70.94
78444;BME280;67739;52.986;8.894;2023-05-07T09:26:17;102205.28;;;12.32;72.16
78444;BME280;67739;52.986;8.894;2023-05-07T09:28:43;102211.44;;;12.35;71.43
78444;BME280;67739;52.986;8.894;2023-05-07T09:31:09;102215.59;;;12.46;73.28
78444;BME280;67739;52.986;8.894;2023-05-07T09:33:37;102205.50;;;12.52;70.15
78444;BME280;67739;52.986;8.894;2023-05-07T09:36:04;102211.53;;;12.59;70.62
78444;BME280;67739;52.986;8.894;2023-05-07T09:38:33;102214.88;;;12.67;71.81
78444;BME280;67739;52.986;8.894;2023-05-07T09:41:20;102215.38;;;12.78;70.94
78444;BME280;67739;52.986;8.894;2023-05-07T09:43:46;102214.28;;;12.84;69.89
78444;BME280;67739;52.986;8.894;2023-05-07T09:46:19;102207.06;;;12.84;70.60
78444;BME280;67739;52.986;8.894;2023-05-07T09:48:52;102206.72;;;12.95;71.31
78444;BME280;67739;52.986;8.894;2023-05-07T09:54:02;102200.41;;;13.21;69.69
78444;BME280;67739;52.986;8.894;2023-05-07T09:56:30;102193.94;;;13.26;68.13
78444;BME280;67739;52.986;8.894;2023-05-07T09:58:59;102190.41;;;13.24;67.93
78444;BME280;67739;52.986;8.894;2023-05-07T10:01:26;102189.63;;;13.21;68.25
78444;BME280;67739;52.986;8.894;2023-05-07T10:03:52;102203.16;;;13.19;68.86
78444;BME280;67739;52.986;8.894;2023-05-07T10:06:23;102192.44;;;13.18;68.66
78444;BME280;67739;52.986;8.894;2023-05-07T10:08:51;102198.66;;;13.20;68.63
78444;BME280;67739;52.986;8.894;2023-05-07T10:11:19;102194.03;;;13.23;67.42
78444;BME280;67739;52.986;8.894;2023-05-07T10:13:46;102187.75;;;13.23;68.60
78444;BME280;67739;52.986;8.894;2023-05-07T10:16:12;102186.72;;;13.27;68.44
78444;BME280;67739;52.986;8.894;2023-05-07T10:18:41;102190.41;;;13.24;67.66
78444;BME280;67739;52.986;8.894;2023-05-07T10:21:13;102198.50;;;13.24;67.81
78444;BME280;67739;52.986;8.894;2023-05-07T10:23:41;102198.53;;;13.23;67.98
78444;BME280;67739;52.986;8.894;2023-05-07T10:26:10;102198.59;;;13.21;67.81
78444;BME280;67739;52.986;8.894;2023-05-07T10:28:48;102204.91;;;13.20;68.60
78444;BME280;67739;52.986;8.894;2023-05-07T10:33:50;102187.03;;;13.18;69.13
78444;BME280;67739;52.986;8.894;2023-05-07T10:36:19;102185.94;;;13.23;68.08
78444;BME280;67739;52.986;8.894;2023-05-07T10:38:48;102189.41;;;13.27;67.69
78444;BME280;67739;52.986;8.894;2023-05-07T10:41:14;102197.59;;;13.24;67.19
78444;BME280;67739;52.986;8.894;2023-05-07T10:43:42;102201.94;;;13.28;69.44
78444;BME280;67739;52.986;8.894;2023-05-07T10:46:14;102206.22;;;13.33;69.29
78444;BME280;67739;52.986;8.894;2023-05-07T10:49:10;102204.97;;;13.42;68.97
78444;BME280;67739;52.986;8.894;2023-05-07T10:51:39;102215.50;;;13.50;69.05
78444;BME280;67739;52.986;8.894;2023-05-07T10:54:20;102210.63;;;13.59;69.12
78444;BME280;67739;52.986;8.894;2023-05-07T10:56:46;102210.41;;;13.65;67.50
78444;BME280;67739;52.986;8.894;2023-05-07T11:02:00;102219.47;;;13.86;70.68
78444;BME280;67739;52.986;8.894;2023-05-07T11:04:31;102210.53;;;14.07;69.59
78444;BME280;67739;52.986;8.894;2023-05-07T11:15:04;102198.06;;;15.11;67.43
78444;BME280;67739;52.986;8.894;2023-05-07T11:17:30;102205.34;;;15.29;66.18
78444;BME280;67739;52.986;8.894;2023-05-07T11:19:59;102199.13;;;15.46;65.07
78444;BME280;67739;52.986;8.894;2023-05-07T11:25:02;102196.94;;;15.74;64.86
78444;BME280;67739;52.986;8.894;2023-05-07T11:27:28;102205.34;;;15.87;64.31
78444;BME280;67739;52.986;8.894;2023-05-07T11:29:57;102190.63;;;15.93;65.43
78444;BME280;67739;52.986;8.894;2023-05-07T11:32:28;102198.47;;;15.99;63.20
78444;BME280;67739;52.986;8.894;2023-05-07T11:34:54;102194.91;;;15.98;63.18
78444;BME280;67739;52.986;8.894;2023-05-07T11:37:21;102195.19;;;15.92;62.59
78444;BME280;67739;52.986;8.894;2023-05-07T11:39:47;102196.06;;;15.93;62.76
78444;BME280;67739;52.986;8.894;2023-05-07T11:42:33;102196.19;;;15.89;62.75
78444;BME280;67739;52.986;8.894;2023-05-07T11:44:59;102194.50;;;15.87;62.61
78444;BME280;67739;52.986;8.894;2023-05-07T11:47:30;102197.16;;;15.88;64.80
78444;BME280;67739;52.986;8.894;2023-05-07T11:49:56;102195.91;;;15.96;64.05
78444;BME280;67739;52.986;8.894;2023-05-07T11:52:23;102201.25;;;15.97;62.83
78444;BME280;67739;52.986;8.894;2023-05-07T11:54:56;102194.44;;;15.88;62.07
78444;BME280;67739;52.986;8.894;2023-05-07T11:57:29;102200.31;;;15.79;61.72
78444;BME280;67739;52.986;8.894;2023-05-07T12:02:20;102201.13;;;15.42;62.60
78444;BME280;67739;52.986;8.894;2023-05-07T12:04:45;102200.50;;;15.36;63.43
78444;BME280;67739;52.986;8.894;2023-05-07T12:07:15;102208.25;;;15.25;63.81
78444;BME280;67739;52.986;8.894;2023-05-07T12:09:41;102202.03;;;15.23;63.45
78444;BME280;67739;52.986;8.894;2023-05-07T12:12:07;102201.97;;;15.24;63.74
78444;BME280;67739;52.986;8.894;2023-05-07T12:14:33;102191.97;;;15.26;63.51
78444;BME280;67739;52.986;8.894;2023-05-07T12:17:03;102188.06;;;15.32;63.91
78444;BME280;67739;52.986;8.894;2023-05-07T12:19:33;102200.66;;;15.33;63.27
78444;BME280;67739;52.986;8.894;2023-05-07T12:21:58;102189.91;;;15.31;64.43
78444;BME280;67739;52.986;8.894;2023-05-07T12:24:27;102195.09;;;15.36;63.91
78444;BME280;67739;52.986;8.894;2023-05-07T12:26:52;102190.44;;;15.39;63.20
78444;BME280;67739;52.986;8.894;2023-05-07T12:29:21;102192.84;;;15.45;63.44
78444;BME280;67739;52.986;8.894;2023-05-07T12:31:47;102190.66;;;15.55;64.62
78444;BME280;67739;52.986;8.894;2023-05-07T12:34:15;102192.78;;;15.67;64.41
78444;BME280;67739;52.986;8.894;2023-05-07T12:36:40;102184.88;;;15.81;64.52
78444;BME280;67739;52.986;8.894;2023-05-07T12:39:07;102192.25;;;15.97;64.17
78444;BME280;67739;52.986;8.894;2023-05-07T12:41:58;102192.59;;;16.08;63.01
78444;BME280;67739;52.986;8.894;2023-05-07T12:44:45;102191.13;;;16.19;61.22
78444;BME280;67739;52.986;8.894;2023-05-07T12:47:11;102199.31;;;16.18;61.20
78444;BME280;67739;52.986;8.894;2023-05-07T12:49:37;102194.16;;;16.13;61.29
78444;BME280;67739;52.986;8.894;2023-05-07T12:52:06;102196.94;;;16.12;60.24
78444;BME280;67739;52.986;8.894;2023-05-07T12:54:33;102188.94;;;16.09;60.91
78444;BME280;67739;52.986;8.894;2023-05-07T12:57:03;102189.91;;;16.08;61.02
78444;BME280;67739;52.986;8.894;2023-05-07T12:59:34;102192.47;;;16.11;61.32
78444;BME280;67739;52.986;8.894;2023-05-07T13:02:00;102190.72;;;16.10;60.52
78444;BME280;67739;52.986;8.894;2023-05-07T13:04:25;102189.03;;;16.07;60.40
78444;BME280;67739;52.986;8.894;2023-05-07T13:06:54;102189.91;;;16.08;61.14
78444;BME280;67739;52.986;8.894;2023-05-07T13:09:19;102196.59;;;16.18;62.05
78444;BME280;67739;52.986;8.894;2023-05-07T13:11:45;102194.50;;;16.24;61.95
78444;BME280;67739;52.986;8.894;2023-05-07T13:14:13;102199.28;;;16.37;62.93
78444;BME280;67739;52.986;8.894;2023-05-07T13:16:38;102189.38;;;16.54;62.04